createdAt,value
2022-10-14T00:01:18.047Z,101568.41
2022-10-14T00:03:47.752Z,101569.31
2022-10-14T00:06:17.933Z,101565.38
2022-10-14T00:08:45.523Z,101535.31
2022-10-14T00:11:17.363Z,101561.63
2022-10-14T00:13:46.840Z,101562.47
2022-10-14T00:16:28.306Z,101564.53
2022-10-14T00:18:55.326Z,101551.47
2022-10-14T00:21:24.972Z,101554.75
2022-10-14T00:23:55.319Z,101545.84
2022-10-14T00:26:31.332Z,101561.94
2022-10-14T00:28:59.365Z,101574.00
2022-10-14T00:31:26.843Z,101563.91
2022-10-14T00:33:53.584Z,101569.94
2022-10-14T00:36:22.014Z,101559.69
2022-10-14T00:38:49.124Z,101541.69
2022-10-14T00:41:22.719Z,101532.03
2022-10-14T00:44:27.672Z,101536.06
2022-10-14T00:46:58.662Z,101531.41
2022-10-14T00:49:32.031Z,101534.88
2022-10-14T00:52:11.238Z,101525.63
2022-10-14T00:54:42.590Z,101499.59
2022-10-14T00:57:10.303Z,101529.78
2022-10-14T00:59:36.918Z,101505.63
2022-10-14T01:02:06.387Z,101531.34
2022-10-14T01:04:34.145Z,101532.22
2022-10-14T01:07:12.953Z,101524.88
2022-10-14T01:09:50.843Z,101524.53
2022-10-14T01:12:29.224Z,101518.19
2022-10-14T01:15:36.582Z,101506.22
2022-10-14T01:18:36.352Z,101500.91
2022-10-14T01:21:25.131Z,101491.97
2022-10-14T01:24:20.415Z,101470.81
2022-10-14T01:27:18.375Z,101477.53
2022-10-14T01:30:11.859Z,101468.28
2022-10-14T01:32:49.004Z,101465.41
2022-10-14T01:35:29.653Z,101464.56
2022-10-14T01:38:04.654Z,101448.16
2022-10-14T01:40:44.918Z,101465.41
2022-10-14T01:43:13.535Z,101439.38
2022-10-14T01:45:43.655Z,101457.03
2022-10-14T01:48:13.458Z,101437.50
2022-10-14T01:50:44.627Z,101456.13
2022-10-14T01:53:34.191Z,101432.03
2022-10-14T01:56:02.997Z,101430.28
2022-10-14T01:58:34.546Z,101457.41
2022-10-14T02:01:04.427Z,101457.94
2022-10-14T02:03:57.370Z,101449.56
2022-10-14T02:06:36.330Z,101416.34
2022-10-14T02:09:11.175Z,101423.56
2022-10-14T02:11:54.819Z,101415.34
2022-10-14T02:14:38.338Z,101447.69
2022-10-14T02:17:26.768Z,101453.75
2022-10-14T02:19:58.404Z,101458.34
2022-10-14T02:22:46.911Z,101442.75
2022-10-14T02:25:27.136Z,101418.63
2022-10-14T02:27:54.660Z,101419.19
2022-10-14T02:30:22.398Z,101405.38
2022-10-14T02:32:50.195Z,101445.19
2022-10-14T02:35:20.028Z,101420.03
2022-10-14T02:37:49.348Z,101444.88
2022-10-14T02:40:22.569Z,101420.59
2022-10-14T02:42:50.313Z,101451.22
2022-10-14T02:45:17.441Z,101449.34
2022-10-14T02:47:46.987Z,101439.22
2022-10-14T02:50:13.647Z,101428.25
2022-10-14T02:52:40.235Z,101423.09
2022-10-14T02:55:07.366Z,101421.75
2022-10-14T02:57:34.373Z,101418.00
2022-10-14T03:00:00.964Z,101420.56
2022-10-14T03:02:27.611Z,101421.44
2022-10-14T03:04:56.906Z,101407.72
2022-10-14T03:07:24.188Z,101417.84
2022-10-14T03:09:50.834Z,101386.34
2022-10-14T03:12:17.444Z,101403.25
2022-10-14T03:14:44.075Z,101409.59
2022-10-14T03:17:11.522Z,101403.97
2022-10-14T03:19:38.090Z,101381.38
2022-10-14T03:22:04.806Z,101404.66
2022-10-14T03:24:31.466Z,101391.09
2022-10-14T03:26:58.289Z,101369.72
2022-10-14T03:29:25.149Z,101375.75
2022-10-14T03:31:51.884Z,101365.09
2022-10-14T03:34:19.026Z,101365.09
2022-10-14T03:36:45.674Z,101387.50
2022-10-14T03:39:12.394Z,101390.94
2022-10-14T03:41:39.648Z,101390.25
2022-10-14T03:44:08.883Z,101360.50
2022-10-14T03:46:35.486Z,101345.34
2022-10-14T03:49:02.121Z,101371.75
2022-10-14T03:51:28.744Z,101309.38
2022-10-14T03:53:55.286Z,101367.56
2022-10-14T03:56:22.488Z,101369.16
2022-10-14T03:58:49.301Z,101366.41
2022-10-14T04:01:16.111Z,101365.56
2022-10-14T04:03:42.922Z,101363.50
2022-10-14T04:06:09.581Z,101358.56
2022-10-14T04:08:36.205Z,101329.44
2022-10-14T04:11:02.847Z,101345.78
2022-10-14T04:13:29.423Z,101353.38
2022-10-14T04:15:56.275Z,101351.53
2022-10-14T04:18:22.812Z,101342.41
2022-10-14T04:20:49.386Z,101331.88
2022-10-14T04:23:18.305Z,101344.31
2022-10-14T04:25:47.330Z,101347.75
2022-10-14T04:28:16.505Z,101296.84
2022-10-14T04:30:43.192Z,101338.50
2022-10-14T04:33:09.808Z,101342.94
2022-10-14T04:35:36.422Z,101334.72
2022-10-14T04:38:03.175Z,101322.03
2022-10-14T04:40:34.130Z,101332.69
2022-10-14T04:43:00.885Z,101330.97
2022-10-14T04:45:27.928Z,101307.03
2022-10-14T04:47:54.523Z,101326.31
2022-10-14T04:50:21.985Z,101318.59
2022-10-14T04:52:48.661Z,101297.78
2022-10-14T04:55:17.783Z,101311.22
2022-10-14T04:57:44.578Z,101303.78
2022-10-14T05:00:12.602Z,101290.25
2022-10-14T05:02:42.117Z,101311.44
2022-10-14T05:05:09.351Z,101310.59
2022-10-14T05:07:36.759Z,101305.47
2022-10-14T05:10:04.785Z,101294.66
2022-10-14T05:12:32.848Z,101272.28
2022-10-14T05:15:05.517Z,101307.34
2022-10-14T05:17:33.060Z,101294.50
2022-10-14T05:19:59.826Z,101291.75
2022-10-14T05:22:29.529Z,101283.69
2022-10-14T05:24:56.225Z,101287.09
2022-10-14T05:27:23.215Z,101282.47
2022-10-14T05:29:49.812Z,101278.03
2022-10-14T05:32:16.422Z,101274.25
2022-10-14T05:34:43.076Z,101266.00
2022-10-14T05:37:10.182Z,101265.00
2022-10-14T05:39:37.011Z,101258.81
2022-10-14T05:42:03.958Z,101258.50
2022-10-14T05:44:30.634Z,101254.19
2022-10-14T05:46:59.508Z,101264.16
2022-10-14T05:49:26.289Z,101256.78
2022-10-14T05:51:55.339Z,101253.88
2022-10-14T05:54:21.982Z,101249.22
2022-10-14T05:56:48.593Z,101255.44
2022-10-14T05:59:15.299Z,101253.88
2022-10-14T06:01:44.283Z,101248.38
2022-10-14T06:04:20.528Z,101247.88
2022-10-14T06:06:47.273Z,101238.41
2022-10-14T06:09:14.712Z,101242.22
2022-10-14T06:11:41.336Z,101236.75
2022-10-14T06:14:08.451Z,101223.31
2022-10-14T06:16:37.304Z,101234.00
2022-10-14T06:19:04.127Z,101233.00
2022-10-14T06:21:30.880Z,101232.09
2022-10-14T06:23:57.438Z,101214.94
2022-10-14T06:26:24.241Z,101218.91
2022-10-14T06:28:50.914Z,101209.97
2022-10-14T06:31:17.585Z,101226.81
2022-10-14T06:33:45.189Z,101224.06
2022-10-14T06:36:12.183Z,101229.06
2022-10-14T06:38:39.227Z,101200.72
2022-10-14T06:41:06.179Z,101229.59
2022-10-14T06:43:32.834Z,101188.00
2022-10-14T06:45:59.710Z,101234.75
2022-10-14T06:48:29.526Z,101222.22
2022-10-14T06:50:59.136Z,101217.94
2022-10-14T06:53:26.541Z,101200.25
2022-10-14T06:56:05.250Z,101190.81
2022-10-14T06:58:33.032Z,101219.88
2022-10-14T07:01:07.572Z,101209.56
2022-10-14T07:03:38.907Z,101178.47
2022-10-14T07:06:07.238Z,101208.59
2022-10-14T07:08:34.214Z,101205.84
2022-10-14T07:11:01.168Z,101185.00
2022-10-14T07:13:28.706Z,101207.75
2022-10-14T07:15:55.341Z,101211.34
2022-10-14T07:18:22.387Z,101182.63
2022-10-14T07:20:51.365Z,101212.72
2022-10-14T07:23:20.494Z,101205.19
2022-10-14T07:25:47.175Z,101190.06
2022-10-14T07:28:14.021Z,101217.38
2022-10-14T07:30:41.092Z,101211.19
2022-10-14T07:33:07.727Z,101198.63
2022-10-14T07:35:38.290Z,101218.09
2022-10-14T07:38:05.108Z,101189.38
2022-10-14T07:40:32.157Z,101211.38
2022-10-14T07:42:59.034Z,101182.72
2022-10-14T07:45:27.746Z,101218.78
2022-10-14T07:47:56.743Z,101220.31
2022-10-14T07:50:23.724Z,101219.28
2022-10-14T07:52:58.935Z,101183.22
2022-10-14T07:55:27.801Z,101200.91
2022-10-14T07:57:54.430Z,101202.63
2022-10-14T08:00:21.484Z,101210.38
2022-10-14T08:02:48.135Z,101207.81
2022-10-14T08:08:04.533Z,101205.72
2022-10-14T08:10:33.924Z,101199.88
2022-10-14T08:13:00.691Z,101182.72
2022-10-14T08:15:29.908Z,101207.78
2022-10-14T08:17:57.064Z,101201.44
2022-10-14T08:20:26.228Z,101203.00
2022-10-14T08:22:56.235Z,101172.75
2022-10-14T08:25:23.007Z,101197.66
2022-10-14T08:27:51.249Z,101170.03
2022-10-14T08:30:21.496Z,101175.84
2022-10-14T08:32:50.744Z,101192.00
2022-10-14T08:35:17.466Z,101193.84
2022-10-14T08:37:44.101Z,101190.91
2022-10-14T08:40:19.325Z,101194.53
2022-10-14T08:43:03.509Z,101162.25
2022-10-14T08:45:37.481Z,101161.75
2022-10-14T08:48:24.661Z,101184.38
2022-10-14T08:51:04.861Z,101180.44
2022-10-14T08:53:40.537Z,101183.72
2022-10-14T08:56:13.899Z,101181.28
2022-10-14T08:58:50.699Z,101192.25
2022-10-14T09:01:26.671Z,101183.66
2022-10-14T09:04:00.797Z,101187.09
2022-10-14T09:06:30.992Z,101188.28
2022-10-14T09:09:05.188Z,101189.44
2022-10-14T09:11:42.716Z,101171.91
2022-10-14T09:14:18.293Z,101170.50
2022-10-14T09:16:50.452Z,101171.56
2022-10-14T09:19:27.131Z,101176.66
2022-10-14T09:21:55.084Z,101181.81
2022-10-14T09:24:31.170Z,101170.13
2022-10-14T09:27:03.241Z,101164.13
2022-10-14T09:29:32.966Z,101161.13
2022-10-14T09:32:04.546Z,101124.06
2022-10-14T09:34:46.292Z,101150.44
2022-10-14T09:37:36.048Z,101162.59
2022-10-14T09:40:29.245Z,101150.94
2022-10-14T09:43:04.868Z,101121.16
2022-10-14T09:45:47.821Z,101144.59
2022-10-14T09:48:43.631Z,101152.69
2022-10-14T09:51:32.218Z,101141.00
2022-10-14T09:54:04.142Z,101125.50
2022-10-14T09:56:42.944Z,101137.59
2022-10-14T09:59:21.379Z,101136.66
2022-10-14T10:01:55.553Z,101137.16
2022-10-14T10:04:43.017Z,101142.59
2022-10-14T10:07:37.093Z,101132.91
2022-10-14T10:10:18.877Z,101136.31
2022-10-14T10:12:47.384Z,101134.91
2022-10-14T10:15:20.151Z,101114.47
2022-10-14T10:17:47.973Z,101126.25
2022-10-14T10:20:33.931Z,101126.25
2022-10-14T10:23:25.745Z,101123.59
2022-10-14T10:25:52.867Z,101055.94
2022-10-14T10:28:31.813Z,101092.75
2022-10-14T10:31:18.333Z,101105.31
2022-10-14T10:34:26.475Z,101122.25
2022-10-14T10:37:16.264Z,101111.91
2022-10-14T10:40:32.969Z,101104.75
2022-10-14T10:43:08.644Z,101114.94
2022-10-14T10:45:50.493Z,101119.56
2022-10-14T10:48:41.471Z,101109.28
2022-10-14T10:51:30.976Z,101111.47
2022-10-14T10:54:06.829Z,101112.00
2022-10-14T10:56:38.806Z,101103.50
2022-10-14T10:59:21.015Z,101106.19
2022-10-14T11:02:14.432Z,101088.41
2022-10-14T11:05:12.709Z,101086.63
2022-10-14T11:08:27.060Z,101098.50
2022-10-14T11:11:43.992Z,101090.97
2022-10-14T11:14:25.519Z,101085.00
2022-10-14T11:16:57.535Z,101091.53
2022-10-14T11:19:50.959Z,101067.09
2022-10-14T11:22:46.432Z,101079.75
2022-10-14T11:25:33.499Z,101090.41
2022-10-14T11:28:10.942Z,101063.13
2022-10-14T11:30:44.848Z,101076.81
2022-10-14T11:33:28.390Z,101074.91
2022-10-14T11:36:01.274Z,101075.94
2022-10-14T11:38:48.459Z,101065.50
2022-10-14T11:41:30.401Z,101061.41
2022-10-14T11:44:27.879Z,101039.81
2022-10-14T11:46:59.987Z,101044.09
2022-10-14T11:49:38.204Z,101036.78
2022-10-14T11:52:18.023Z,101014.16
2022-10-14T11:54:51.432Z,101037.06
2022-10-14T11:57:34.207Z,101031.53
2022-10-14T12:00:12.426Z,101029.84
2022-10-14T12:02:52.494Z,101027.84
2022-10-14T12:05:44.077Z,101029.28
2022-10-14T12:08:46.479Z,101023.28
2022-10-14T12:11:37.934Z,101026.22
2022-10-14T12:14:18.273Z,100996.56
2022-10-14T12:16:49.269Z,100997.91
2022-10-14T12:19:28.327Z,100990.28
2022-10-14T12:22:11.816Z,100995.16
2022-10-14T12:24:45.437Z,101003.97
2022-10-14T12:27:15.867Z,100979.69
2022-10-14T12:29:51.434Z,101003.91
2022-10-14T12:32:21.478Z,101001.22
2022-10-14T12:34:54.103Z,101004.66
2022-10-14T12:37:38.934Z,100986.88
2022-10-14T12:40:06.876Z,100980.69
2022-10-14T12:42:52.444Z,100989.81
2022-10-14T12:45:22.957Z,100985.03
2022-10-14T12:48:28.074Z,100985.47
2022-10-14T12:51:06.333Z,100961.97
2022-10-14T12:53:36.789Z,100960.25
2022-10-14T12:56:05.202Z,100967.47
2022-10-14T12:58:41.151Z,100982.47
2022-10-14T13:01:21.419Z,100960.66
2022-10-14T13:03:59.689Z,100977.34
2022-10-14T13:06:37.052Z,100978.19
2022-10-14T13:09:12.790Z,100976.50
2022-10-14T13:11:43.221Z,100975.16
2022-10-14T13:14:54.855Z,100971.06
2022-10-14T13:17:46.835Z,100968.53
2022-10-14T13:20:35.652Z,100968.75
2022-10-14T13:23:31.505Z,100969.78
2022-10-14T13:26:20.195Z,100959.47
2022-10-14T13:29:12.869Z,100948.69
2022-10-14T13:32:00.162Z,100966.84
2022-10-14T13:34:29.847Z,100971.88
2022-10-14T13:37:32.350Z,100962.03
2022-10-14T13:40:18.044Z,100960.69
2022-10-14T13:42:49.186Z,100962.81
2022-10-14T13:45:17.899Z,100959.88
2022-10-14T13:47:48.247Z,100923.59
2022-10-14T13:50:18.507Z,100964.44
2022-10-14T13:53:14.938Z,100955.50
2022-10-14T13:55:54.439Z,100957.78
2022-10-14T13:58:25.712Z,100952.66
2022-10-14T14:01:02.487Z,100956.06
2022-10-14T14:03:41.917Z,100922.63
2022-10-14T14:06:18.250Z,100929.38
2022-10-14T14:08:49.690Z,100908.19
2022-10-14T14:11:33.433Z,100943.16
2022-10-14T14:14:04.415Z,100937.19
2022-10-14T14:16:36.004Z,100937.00
2022-10-14T14:19:08.703Z,100939.75
2022-10-14T14:21:36.218Z,100941.75
2022-10-14T14:24:11.337Z,100940.47
2022-10-14T14:26:41.309Z,100940.56
2022-10-14T14:29:21.528Z,100911.50
2022-10-14T14:32:07.857Z,100907.88
2022-10-14T14:34:37.100Z,100902.03
2022-10-14T14:37:43.533Z,100931.94
2022-10-14T14:40:07.282Z,100936.22
2022-10-14T14:42:40.133Z,100931.69
2022-10-14T14:45:31.301Z,100928.47
2022-10-14T14:48:02.766Z,100901.59
2022-10-14T14:50:44.344Z,100925.97
2022-10-14T14:53:16.727Z,100928.91
2022-10-14T14:55:55.504Z,100925.69
2022-10-14T14:58:37.619Z,100917.81
2022-10-14T15:01:07.293Z,100923.25
2022-10-14T15:04:13.466Z,100919.75
2022-10-14T15:06:39.716Z,100920.13
2022-10-14T15:09:24.390Z,100909.66
2022-10-14T15:11:57.823Z,100916.91
2022-10-14T15:14:47.948Z,100914.16
2022-10-14T15:17:34.812Z,100919.84
2022-10-14T15:20:33.329Z,100908.16
2022-10-14T15:23:03.458Z,100906.81
2022-10-14T15:25:31.470Z,100911.50
2022-10-14T15:28:02.501Z,100887.56
2022-10-14T15:30:35.704Z,100903.81
2022-10-14T15:33:24.065Z,100899.50
2022-10-14T15:35:59.408Z,100908.38
2022-10-14T15:38:26.811Z,100917.41
2022-10-14T15:40:54.065Z,100888.16
2022-10-14T15:43:24.042Z,100912.47
2022-10-14T15:46:12.961Z,100908.19
2022-10-14T15:48:48.026Z,100883.94
2022-10-14T15:51:16.957Z,100899.75
2022-10-14T15:53:44.183Z,100895.50
2022-10-14T15:56:10.906Z,100894.22
2022-10-14T15:58:39.881Z,100887.53
2022-10-14T16:01:08.121Z,100890.88
2022-10-14T16:03:36.018Z,100865.78
2022-10-14T16:06:07.067Z,100850.78
2022-10-14T16:08:34.144Z,100879.00
2022-10-14T16:11:05.425Z,100855.41
2022-10-14T16:13:32.270Z,100868.16
2022-10-14T16:16:04.919Z,100883.41
2022-10-14T16:18:33.849Z,100883.31
2022-10-14T16:21:00.451Z,100880.44
2022-10-14T16:23:29.605Z,100879.31
2022-10-14T16:26:00.383Z,100885.66
2022-10-14T16:28:27.155Z,100872.22
2022-10-14T16:30:53.891Z,100873.44
2022-10-14T16:33:22.037Z,100904.34
2022-10-14T16:35:56.409Z,100877.31
2022-10-14T16:38:24.357Z,100881.78
2022-10-14T16:40:59.382Z,100891.56
2022-10-14T16:43:26.921Z,100890.97
2022-10-14T16:45:57.094Z,100903.00
2022-10-14T16:48:26.173Z,100865.97
2022-10-14T16:50:53.788Z,100900.44
2022-10-14T16:53:39.322Z,100887.97
2022-10-14T16:56:36.637Z,100873.47
2022-10-14T16:59:03.831Z,100887.53
2022-10-14T17:01:31.335Z,100901.63
2022-10-14T17:03:58.321Z,100897.53
2022-10-14T17:06:26.272Z,100889.69
2022-10-14T17:08:53.219Z,100892.06
2022-10-14T17:11:20.095Z,100874.28
2022-10-14T17:13:47.166Z,100886.44
2022-10-14T17:16:15.845Z,100888.22
2022-10-14T17:18:43.120Z,100901.06
2022-10-14T17:21:12.203Z,100874.19
2022-10-14T17:23:43.854Z,100889.75
2022-10-14T17:26:18.716Z,100899.25
2022-10-14T17:28:47.270Z,100903.19
2022-10-14T17:31:16.856Z,100902.50
2022-10-14T17:33:43.636Z,100892.22
2022-10-14T17:36:19.935Z,100892.91
2022-10-14T17:38:48.276Z,100888.47
2022-10-14T17:41:18.596Z,100904.94
2022-10-14T17:43:49.610Z,100911.81
2022-10-14T17:46:20.854Z,100905.66
2022-10-14T17:48:56.299Z,100916.28
2022-10-14T17:51:25.329Z,100910.09
2022-10-14T17:53:58.284Z,100889.91
2022-10-14T17:56:26.136Z,100898.63
2022-10-14T17:58:57.520Z,100916.97
2022-10-14T18:01:37.274Z,100904.78
2022-10-14T18:04:11.099Z,100896.38
2022-10-14T18:06:42.394Z,100901.22
2022-10-14T18:09:10.137Z,100901.22
2022-10-14T18:12:07.180Z,100889.91
2022-10-14T18:14:27.912Z,100893.66
2022-10-14T18:16:54.782Z,100894.41
2022-10-14T18:19:21.559Z,100863.66
2022-10-14T18:21:48.183Z,100864.53
2022-10-14T18:24:14.877Z,100861.28
2022-10-14T18:26:44.192Z,100881.34
2022-10-14T18:29:11.134Z,100884.44
2022-10-14T18:31:39.444Z,100888.38
2022-10-14T18:34:09.529Z,100865.78
2022-10-14T18:36:36.582Z,100890.13
2022-10-14T18:39:08.686Z,100879.16
2022-10-14T18:41:37.484Z,100892.00
2022-10-14T18:44:05.759Z,100862.19
2022-10-14T18:46:34.652Z,100862.38
2022-10-14T18:49:02.495Z,100876.06
2022-10-14T18:51:31.802Z,100853.81
2022-10-14T18:54:00.781Z,100875.06
2022-10-14T18:56:34.090Z,100875.72
2022-10-14T18:59:05.688Z,100838.19
2022-10-14T19:01:33.549Z,100850.91
2022-10-14T19:04:00.556Z,100873.88
2022-10-14T19:06:27.515Z,100873.50
2022-10-14T19:08:54.447Z,100873.00
2022-10-14T19:11:25.508Z,100839.25
2022-10-14T19:13:54.903Z,100853.81
2022-10-14T19:16:31.301Z,100837.19
2022-10-14T19:19:12.090Z,100849.16
2022-10-14T19:21:39.805Z,100844.56
2022-10-14T19:24:10.353Z,100850.41
2022-10-14T19:26:42.499Z,100847.16
2022-10-14T19:29:12.737Z,100842.00
2022-10-14T19:31:40.457Z,100847.66
2022-10-14T19:34:13.277Z,100843.19
2022-10-14T19:36:40.867Z,100850.56
2022-10-14T19:39:10.043Z,100850.91
2022-10-14T19:41:42.875Z,100842.53
2022-10-14T19:44:13.275Z,100841.97
2022-10-14T19:46:40.800Z,100842.34
2022-10-14T19:49:13.257Z,100817.81
2022-10-14T19:51:40.296Z,100844.88
2022-10-14T19:54:11.793Z,100849.69
2022-10-14T19:56:38.944Z,100845.44
2022-10-14T19:59:05.781Z,100839.41
2022-10-14T20:01:32.517Z,100837.19
2022-10-14T20:04:00.905Z,100798.13
2022-10-14T20:06:33.955Z,100786.44
2022-10-14T20:09:00.794Z,100840.63
2022-10-14T20:11:28.402Z,100835.47
2022-10-14T20:13:54.939Z,100845.75
2022-10-14T20:16:21.610Z,100847.78
2022-10-14T20:18:48.348Z,100843.69
2022-10-14T20:21:16.163Z,100839.50
2022-10-14T20:23:43.030Z,100847.22
2022-10-14T20:26:15.742Z,100846.53
2022-10-14T20:28:42.493Z,100838.97
2022-10-14T20:31:11.609Z,100851.66
2022-10-14T20:33:38.661Z,100857.31
2022-10-14T20:36:14.544Z,100822.66
2022-10-14T20:38:42.392Z,100842.22
2022-10-14T20:41:20.636Z,100827.47
2022-10-14T20:43:48.351Z,100836.38
2022-10-14T20:46:15.981Z,100806.88
2022-10-14T20:48:46.543Z,100851.06
2022-10-14T20:51:16.173Z,100855.53
2022-10-14T20:53:42.876Z,100857.03
2022-10-14T20:56:11.384Z,100849.16
2022-10-14T20:58:38.730Z,100825.84
2022-10-14T21:01:16.894Z,100843.50
2022-10-14T21:03:47.943Z,100847.28
2022-10-14T21:06:17.941Z,100838.34
2022-10-14T21:08:44.973Z,100854.78
2022-10-14T21:11:15.326Z,100856.00
2022-10-14T21:13:52.092Z,100852.72
2022-10-14T21:16:27.553Z,100856.66
2022-10-14T21:18:57.879Z,100852.91
2022-10-14T21:21:31.293Z,100827.31
2022-10-14T21:23:59.077Z,100846.03
2022-10-14T21:26:26.273Z,100854.41
2022-10-14T21:28:53.254Z,100850.97
2022-10-14T21:31:20.912Z,100817.19
2022-10-14T21:33:48.822Z,100818.38
2022-10-14T21:36:17.064Z,100839.50
2022-10-14T21:38:44.298Z,100846.16
2022-10-14T21:41:11.914Z,100816.50
2022-10-14T21:43:39.482Z,100823.53
2022-10-14T21:46:09.703Z,100820.13
2022-10-14T21:48:40.001Z,100840.16
2022-10-14T21:51:18.089Z,100842.56
2022-10-14T21:53:46.218Z,100842.41
2022-10-14T21:56:14.458Z,100820.13
2022-10-14T21:58:41.654Z,100849.03
2022-10-14T22:01:13.394Z,100848.72
2022-10-14T22:03:41.008Z,100812.06
2022-10-14T22:06:18.976Z,100837.25
2022-10-14T22:08:48.725Z,100810.66
2022-10-14T22:11:23.071Z,100805.34
2022-10-14T22:13:51.182Z,100824.38
2022-10-14T22:16:20.930Z,100804.50
2022-10-14T22:18:50.652Z,100832.94
2022-10-14T22:21:20.787Z,100825.78
2022-10-14T22:23:48.950Z,100820.47
2022-10-14T22:26:19.113Z,100831.59
2022-10-14T22:28:46.141Z,100828.84
2022-10-14T22:31:20.341Z,100825.38
2022-10-14T22:33:49.680Z,100805.50
2022-10-14T22:36:24.204Z,100815.66
2022-10-14T22:38:53.404Z,100795.41
2022-10-14T22:41:24.051Z,100821.47
2022-10-14T22:43:55.659Z,100793.19
2022-10-14T22:46:25.563Z,100820.63
2022-10-14T22:48:58.216Z,100805.56
2022-10-14T22:51:37.078Z,100818.06
2022-10-14T22:54:04.356Z,100819.91
2022-10-14T22:56:32.267Z,100813.44
2022-10-14T22:59:07.225Z,100796.81
2022-10-14T23:01:36.679Z,100788.56
2022-10-14T23:04:04.291Z,100808.81
2022-10-14T23:06:31.755Z,100795.13
2022-10-14T23:09:00.737Z,100774.56
2022-10-14T23:11:31.074Z,100798.22
2022-10-14T23:14:00.217Z,100770.75
2022-10-14T23:16:31.898Z,100793.72
2022-10-14T23:18:59.138Z,100771.75
2022-10-14T23:21:29.173Z,100796.41
2022-10-14T23:23:58.188Z,100786.13
2022-10-14T23:26:27.266Z,100764.16
2022-10-14T23:28:56.847Z,100792.75
2022-10-14T23:31:25.959Z,100792.25
2022-10-14T23:33:53.520Z,100780.94
2022-10-14T23:36:21.971Z,100790.31
2022-10-14T23:38:50.033Z,100772.00
2022-10-14T23:41:21.915Z,100780.53
2022-10-14T23:43:49.618Z,100778.09
2022-10-14T23:46:19.216Z,100765.72
2022-10-14T23:48:51.549Z,100794.31
2022-10-14T23:51:27.767Z,100764.41
2022-10-14T23:53:54.438Z,100768.16
2022-10-14T23:56:23.397Z,100793.34
2022-10-14T23:58:52.406Z,100766.19
